.
WxDataArchive / Data Records for 2015-05-02
2015-05-01 May 2015 2015-05-03

Data Records for Saturday, 02 May 2015

Time	Temp	Chill	HIndex	Humid	Dewpt	 Wind 	HiWind	WindDir	Rain 	Barom
-----	----	-----	------	-----	-----	------	------	-------	-----	-----
00:00	57.6	57.6	57.6	48	38.1	0	1	315	0.00	30.054 
00:05	57.5	57.5	57.5	48	38.0	0	1	315	0.00	30.054 
00:10	57.3	57.3	57.3	48	37.8	0	1	315	0.00	30.054 
00:15	57.2	57.2	57.2	49	38.2	0	1	315	0.00	30.057 
00:20	57.0	57.0	57.0	50	38.5	0	0	---	0.00	30.057 
00:25	56.9	56.9	56.9	50	38.5	0	2	315	0.00	30.057 
00:30	56.7	56.7	56.7	50	38.3	0	1	315	0.00	30.054 
00:35	56.6	56.6	56.6	50	38.2	0	1	315	0.00	30.054 
00:40	56.5	56.5	56.5	50	38.1	0	1	315	0.00	30.054 
00:45	56.3	56.3	56.3	50	37.9	0	1	315	0.00	30.058 
00:50	56.3	56.3	56.3	50	37.9	0	0	---	0.00	30.058 
00:55	56.2	56.2	56.2	50	37.8	0	1	315	0.00	30.058 
01:00	56.0	56.0	56.0	51	38.1	0	0	---	0.00	30.059 
01:05	55.9	55.9	55.9	51	38.0	0	0	---	0.00	30.059 
01:10	55.7	55.7	55.7	51	37.9	0	0	---	0.00	30.059 
01:15	55.4	55.4	55.4	51	37.6	0	0	---	0.00	30.059 
01:20	55.3	55.3	55.3	51	37.5	0	0	---	0.00	30.059 
01:25	55.0	55.0	55.0	53	38.2	0	0	---	0.00	30.059 
01:30	54.5	54.5	54.5	54	38.2	0	0	---	0.00	30.058 
01:35	54.1	54.1	54.1	55	38.3	0	0	---	0.00	30.058 
01:40	53.8	53.8	53.8	55	38.0	0	0	---	0.00	30.058 
01:45	53.5	53.5	53.5	55	37.7	0	0	---	0.00	30.055 
01:50	53.2	53.2	53.2	56	37.9	0	0	---	0.00	30.055 
01:55	52.9	52.9	52.9	57	38.1	0	0	---	0.00	30.055 
02:00	52.6	52.6	52.6	58	38.2	0	0	---	0.00	30.055 
02:05	52.3	52.3	52.3	59	38.4	0	0	---	0.00	30.055 
02:10	52.0	52.0	52.0	61	39.0	0	0	---	0.00	30.055 
02:15	51.6	51.6	51.6	62	39.0	0	0	---	0.00	30.053 
02:20	51.3	51.3	51.3	62	38.7	0	0	---	0.00	30.053 
02:25	51.0	51.0	51.0	62	38.4	0	0	---	0.00	30.053 
02:30	50.7	50.7	50.7	63	38.6	0	0	---	0.00	30.054 
02:35	50.5	50.5	50.5	63	38.4	0	0	---	0.00	30.054 
02:40	50.4	50.4	50.4	64	38.7	0	0	---	0.00	30.054 
02:45	50.2	50.2	50.2	65	38.9	0	0	---	0.00	30.051 
02:50	50.1	50.1	50.1	65	38.8	0	0	---	0.00	30.051 
02:55	49.9	49.9	49.9	66	39.0	0	0	---	0.00	30.051 
03:00	49.8	49.8	49.8	66	38.9	0	0	---	0.00	30.052 
03:05	49.8	49.8	49.8	67	39.3	0	0	---	0.00	30.052 
03:10	49.6	49.6	49.6	67	39.1	0	0	---	0.00	30.052 
03:15	49.6	49.6	49.6	68	39.5	0	0	---	0.00	30.052 
03:20	49.6	49.6	49.6	68	39.5	0	0	---	0.00	30.052 
03:25	49.5	49.5	49.5	69	39.8	0	0	---	0.00	30.052 
03:30	49.4	49.4	49.4	69	39.7	0	0	---	0.00	30.053 
03:35	49.2	49.2	49.2	69	39.5	0	0	---	0.00	30.053 
03:40	49.1	49.1	49.1	69	39.4	0	0	---	0.00	30.053 
03:45	48.9	48.9	48.9	70	39.6	0	0	---	0.00	30.053 
03:50	48.8	48.8	48.8	70	39.5	0	0	---	0.00	30.053 
03:55	48.6	48.6	48.6	71	39.6	0	0	---	0.00	30.053 
04:00	48.5	48.5	48.5	72	39.9	0	0	---	0.00	30.052 
04:05	48.3	48.3	48.3	72	39.7	0	0	---	0.00	30.052 
04:10	48.3	48.3	48.3	73	40.1	0	0	---	0.00	30.052 
04:15	48.2	48.2	48.2	73	40.0	0	0	---	0.00	30.052 
04:20	48.0	48.0	48.0	73	39.8	0	0	---	0.00	30.052 
04:25	48.0	48.0	48.0	74	40.1	0	0	---	0.00	30.052 
04:30	48.0	48.0	48.0	74	40.1	0	0	---	0.00	30.052 
04:35	47.9	47.9	47.9	74	40.0	0	0	---	0.00	30.052 
04:40	47.9	47.9	47.9	74	40.0	0	0	---	0.00	30.052 
04:45	47.7	47.7	47.7	75	40.2	0	0	---	0.00	30.052 
04:50	47.6	47.6	47.6	75	40.1	0	0	---	0.00	30.052 
04:55	47.6	47.6	47.6	76	40.4	0	0	---	0.00	30.052 
05:00	47.4	47.4	47.4	76	40.2	0	0	---	0.00	30.052 
05:05	47.4	47.4	47.4	77	40.6	0	0	---	0.00	30.052 
05:10	47.3	47.3	47.3	77	40.5	0	0	---	0.00	30.052 
05:15	47.1	47.1	47.1	77	40.3	0	0	---	0.00	30.053 
05:20	47.1	47.1	47.1	78	40.6	0	0	---	0.00	30.053 
05:25	47.3	47.3	47.3	78	40.8	0	0	---	0.00	30.053 
05:30	47.3	47.3	47.3	78	40.8	0	0	---	0.00	30.054 
05:35	47.1	47.1	47.1	78	40.6	0	0	---	0.00	30.054 
05:40	47.1	47.1	47.1	78	40.6	0	0	---	0.00	30.054 
05:45	47.1	47.1	47.1	79	40.9	0	0	---	0.00	30.055 
05:50	47.1	47.1	47.1	79	40.9	0	0	---	0.00	30.055 
05:55	47.1	47.1	47.1	79	40.9	0	0	---	0.00	30.055 
06:00	47.1	47.1	47.1	79	40.9	0	0	---	0.00	30.057 
06:05	47.1	47.1	47.1	79	40.9	0	0	---	0.00	30.057 
06:10	47.1	47.1	47.1	79	40.9	0	0	---	0.00	30.057 
06:15	47.1	47.1	47.1	79	40.9	0	0	---	0.00	30.057 
06:20	47.1	47.1	47.1	79	40.9	0	0	---	0.00	30.057 
06:25	47.0	47.0	47.0	79	40.8	0	0	---	0.00	30.057 
06:30	47.0	47.0	47.0	79	40.8	0	0	---	0.00	30.058 
06:35	46.8	46.8	46.8	79	40.6	0	0	---	0.00	30.058 
06:40	46.8	46.8	46.8	80	41.0	0	0	---	0.00	30.058 
06:45	46.8	46.8	46.8	80	41.0	0	0	---	0.00	30.064 
06:50	46.8	46.8	46.8	80	41.0	0	0	---	0.00	30.064 
06:55	47.0	47.0	47.0	80	41.2	0	0	---	0.00	30.064 
07:00	46.8	46.8	46.8	80	41.0	0	0	---	0.00	30.068 
07:05	47.0	47.0	47.0	80	41.2	0	0	---	0.00	30.068 
07:10	47.1	47.1	47.1	80	41.3	0	0	---	0.00	30.068 
07:15	47.3	47.3	47.3	79	41.1	0	0	---	0.00	30.074 
07:20	47.7	47.7	47.7	78	41.2	0	0	---	0.00	30.074 
07:25	48.0	48.0	48.0	77	41.1	0	0	---	0.00	30.074 
07:30	48.5	48.5	48.5	76	41.3	0	0	---	0.00	30.078 
07:35	48.9	48.9	48.9	76	41.7	0	0	---	0.00	30.078 
07:40	49.4	49.4	49.4	74	41.5	0	0	---	0.00	30.078 
07:45	49.8	49.8	49.8	73	41.5	0	1	315	0.00	30.084 
07:50	50.1	50.1	50.1	72	41.4	0	1	315	0.00	30.084 
07:55	50.2	50.2	50.2	72	41.5	0	0	---	0.00	30.084 
08:00	50.2	50.2	50.2	71	41.2	0	0	---	0.00	30.084 
08:05	50.4	50.4	50.4	72	41.7	0	0	---	0.00	30.084 
08:10	50.7	50.7	50.7	73	42.4	0	0	---	0.00	30.084 
08:15	51.3	51.3	51.3	71	42.2	0	0	---	0.00	30.084 
08:20	52.0	52.0	52.0	69	42.1	0	0	---	0.00	30.084 
08:25	52.9	52.9	52.9	69	43.0	0	1	315	0.00	30.084 
08:30	53.6	53.6	53.6	68	43.3	0	0	---	0.00	30.084 
08:35	54.1	54.1	54.1	66	43.0	0	1	315	0.00	30.084 
08:40	54.5	54.5	54.5	64	42.6	0	0	---	0.00	30.084 
08:45	55.0	55.0	55.0	62	42.2	0	1	315	0.00	30.084 
08:50	55.1	55.1	55.1	62	42.3	0	1	315	0.00	30.084 
08:55	55.4	55.4	55.4	62	42.6	0	0	---	0.00	30.084 
09:00	55.7	55.7	55.7	63	43.3	0	0	---	0.00	30.083 
09:05	56.2	56.2	56.2	60	42.5	0	0	---	0.00	30.083 
09:10	56.6	56.6	56.6	59	42.4	0	0	---	0.00	30.083 
09:15	56.9	56.9	56.9	57	41.8	0	0	---	0.00	30.086 
09:20	57.5	57.5	57.5	55	41.5	0	1	315	0.00	30.086 
09:25	58.4	58.4	58.4	54	41.8	0	1	315	0.00	30.086 
09:30	59.3	59.3	59.3	53	42.2	0	1	315	0.00	30.084 
09:35	60.1	60.1	60.1	50	41.4	0	1	315	0.00	30.084 
09:40	60.9	60.9	60.9	50	42.1	0	1	315	0.00	30.084 
09:45	61.6	61.6	61.6	47	41.2	0	1	315	0.00	30.080 
09:50	62.3	62.3	62.3	47	41.8	0	1	315	0.00	30.080 
09:55	62.7	62.7	62.7	42	39.3	0	2	315	0.00	30.080 
10:00	63.1	63.1	63.1	43	40.2	0	1	315	0.00	30.079 
10:05	63.5	63.5	63.5	43	40.6	0	1	315	0.00	30.079 
10:10	64.2	64.2	64.2	41	40.0	0	1	315	0.00	30.079 
10:15	64.3	64.3	64.3	39	38.8	1	3	315	0.00	30.080 
10:20	64.7	64.7	64.7	40	39.8	0	1	315	0.00	30.080 
10:25	65.2	65.2	65.2	42	41.5	0	1	315	0.00	30.080 
10:30	65.8	65.8	65.8	39	40.1	0	1	315	0.00	30.076 
10:35	66.4	66.4	66.4	38	40.0	0	2	315	0.00	30.076 
10:40	66.8	66.8	66.8	38	40.4	0	2	315	0.00	30.076 
10:45	67.3	67.3	67.3	38	40.8	0	1	315	0.00	30.075 
10:50	67.8	67.8	67.8	36	39.9	0	1	315	0.00	30.075 
10:55	67.9	67.9	67.9	37	40.7	0	1	315	0.00	30.075 
11:00	68.1	68.1	68.1	35	39.4	0	2	315	0.00	30.072 
11:05	68.1	68.1	68.1	36	40.1	0	3	315	0.00	30.072 
11:10	68.1	68.1	68.1	36	40.1	0	1	315	0.00	30.072 
11:15	68.8	68.8	68.8	38	42.1	0	1	315	0.00	30.068 
11:20	69.3	69.3	69.3	33	39.0	0	1	315	0.00	30.068 
11:25	69.8	69.8	69.8	40	44.4	0	1	315	0.00	30.068 
11:30	69.9	69.9	69.9	34	40.2	0	2	315	0.00	30.067 
11:35	69.6	69.6	69.6	31	37.6	0	3	315	0.00	30.067 
11:40	69.6	69.6	69.6	33	39.2	0	2	315	0.00	30.067 
11:45	69.4	69.4	69.4	33	39.0	1	3	315	0.00	30.068 
11:50	69.1	69.1	69.1	33	38.8	0	3	315	0.00	30.068 
11:55	69.8	69.8	69.8	36	41.6	0	2	315	0.00	30.068 
12:00	70.4	70.4	70.4	36	42.2	0	1	315	0.00	30.063 
12:05	70.4	70.4	70.4	31	38.3	0	2	315	0.00	30.063 
12:10	70.1	70.1	70.1	34	40.4	0	2	315	0.00	30.063 
12:15	69.9	69.9	69.9	31	37.9	1	3	315	0.00	30.064 
12:20	70.1	70.1	70.1	31	38.1	0	2	315	0.00	30.064 
12:25	70.3	70.3	70.3	32	39.0	1	3	315	0.00	30.064 
12:30	70.4	70.4	70.4	33	39.9	1	5	315	0.00	30.062 
12:35	70.8	70.8	70.8	33	40.3	0	2	315	0.00	30.062 
12:40	70.9	70.9	70.9	30	37.9	2	5	292	0.00	30.062 
12:45	70.6	70.6	70.6	33	40.1	2	5	292	0.00	30.058 
12:50	70.4	70.4	70.4	31	38.3	2	5	270	0.00	30.058 
12:55	70.6	70.6	70.6	33	40.1	1	4	315	0.00	30.058 
13:00	70.8	70.8	70.8	31	38.7	1	4	292	0.00	30.049 
13:05	70.9	70.9	70.9	31	38.7	1	5	292	0.00	30.049 
13:10	71.3	71.3	71.3	33	40.7	1	5	292	0.00	30.049 
13:15	71.6	71.6	71.6	31	39.4	1	4	270	0.00	30.048 
13:20	72.1	72.1	72.1	36	43.7	0	1	270	0.00	30.048 
13:25	72.5	72.5	72.5	31	40.1	1	5	248	0.00	30.048 
13:30	72.7	72.7	72.7	35	43.5	1	3	248	0.00	30.045 
13:35	72.5	72.5	72.5	29	38.4	1	3	248	0.00	30.045 
13:40	72.3	72.3	72.3	28	37.4	1	3	248	0.00	30.045 
13:45	72.5	72.5	72.5	28	37.5	1	3	248	0.00	30.038 
13:50	72.3	72.3	72.3	31	40.0	1	4	270	0.00	30.038 
13:55	72.7	72.7	72.7	33	41.9	1	4	248	0.00	30.038 
14:00	73.2	73.2	73.2	29	39.0	1	2	270	0.00	30.032 
14:05	73.5	73.5	73.5	29	39.3	1	3	270	0.00	30.032 
14:10	73.5	73.5	73.5	29	39.3	1	4	270	0.00	30.032 
14:15	73.5	73.5	73.5	28	38.4	1	3	270	0.00	30.031 
14:20	73.3	73.3	73.3	28	38.2	2	4	270	0.00	30.031 
14:25	73.2	73.2	73.2	28	38.1	1	3	270	0.00	30.031 
14:30	73.2	73.2	73.2	27	37.2	1	5	270	0.00	30.029 
14:35	73.5	73.5	73.5	35	44.2	0	2	270	0.00	30.029 
14:40	73.7	73.7	73.7	28	38.6	1	4	270	0.00	30.029 
14:45	73.9	73.9	73.9	31	41.3	1	4	248	0.00	30.019 
14:50	73.7	73.7	73.7	27	37.6	2	6	248	0.00	30.019 
14:55	73.3	73.3	73.3	28	38.2	2	4	270	0.00	30.019 
15:00	72.8	72.8	72.8	28	37.8	2	4	315	0.00	30.018 
15:05	73.2	73.2	73.2	29	39.0	1	3	292	0.00	30.018 
15:10	73.9	73.9	73.9	29	39.6	0	3	292	0.00	30.018 
15:15	74.2	74.2	74.2	28	39.0	1	4	270	0.00	30.017 
15:20	74.0	74.0	74.0	27	37.9	1	4	270	0.00	30.017 
15:25	73.7	73.7	73.7	27	37.6	2	6	270	0.00	30.017 
15:30	73.7	73.7	73.7	29	39.5	1	5	270	0.00	30.010 
15:35	74.0	74.0	74.0	27	37.9	1	3	315	0.00	30.010 
15:40	73.7	73.7	73.7	27	37.6	2	4	315	0.00	30.010 
15:45	73.9	73.9	73.9	27	37.8	2	4	270	0.00	30.004 
15:50	74.0	74.0	74.0	28	38.8	1	3	270	0.00	30.004 
15:55	74.4	74.4	74.4	28	39.2	1	4	270	0.00	30.004 
16:00	74.2	74.2	74.2	28	39.0	2	4	270	0.00	29.998 
16:05	74.0	74.0	74.0	27	37.9	1	3	270	0.00	29.998 
16:10	74.6	74.6	74.6	31	42.0	1	2	270	0.00	29.998 
16:15	75.1	75.1	76.9	29	40.7	0	1	270	0.00	29.991 
16:20	75.3	75.3	77.0	30	41.7	0	3	270	0.00	29.991 
16:25	75.1	75.1	76.7	27	38.8	1	3	270	0.00	29.991 
16:30	75.1	75.1	77.0	31	42.4	1	5	22	0.00	29.982 
16:35	74.9	74.9	74.9	27	38.7	2	6	270	0.00	29.982 
16:40	74.9	74.9	74.9	28	39.6	0	2	90	0.00	29.982 
16:45	74.7	74.7	74.7	27	38.5	2	4	292	0.00	29.981 
16:50	74.7	74.7	74.7	27	38.5	1	4	270	0.00	29.981 
16:55	74.9	74.9	74.9	31	42.2	0	2	270	0.00	29.981 
17:00	75.1	75.1	76.7	27	38.8	0	2	270	0.00	29.977 
17:05	75.1	75.1	76.8	28	39.8	1	5	112	0.00	29.977 
17:10	74.9	74.9	74.9	29	40.5	1	4	315	0.00	29.977 
17:15	74.9	74.9	74.9	27	38.7	1	5	248	0.00	29.977 
17:20	74.9	74.9	74.9	28	39.6	1	4	248	0.00	29.977 
17:25	74.9	74.9	74.9	28	39.6	0	2	248	0.00	29.977 
17:30	75.3	75.3	76.9	28	39.9	1	3	248	0.00	29.975 
17:35	75.1	75.1	76.7	27	38.8	0	3	248	0.00	29.975 
17:40	75.3	75.3	76.9	28	39.9	1	3	248	0.00	29.975 
17:45	75.3	75.3	76.8	27	39.0	1	3	248	0.00	29.975 
17:50	74.9	74.9	74.9	28	39.6	0	3	248	0.00	29.975 
17:55	74.9	74.9	74.9	26	37.7	1	3	248	0.00	29.975 
18:00	74.7	74.7	74.7	26	37.5	1	3	248	0.00	29.974 
18:05	74.4	74.4	74.4	27	38.2	1	3	248	0.00	29.974 
18:10	74.2	74.2	74.2	30	40.8	0	1	248	0.00	29.974 
18:15	74.4	74.4	74.4	31	41.8	0	2	248	0.00	29.975 
18:20	74.2	74.2	74.2	26	37.1	1	5	270	0.00	29.975 
18:25	73.9	73.9	73.9	28	38.7	1	3	270	0.00	29.975 
18:30	73.3	73.3	73.3	27	37.3	2	5	270	0.00	29.976 
18:35	73.3	73.3	73.3	27	37.3	1	4	270	0.00	29.976 
18:40	73.2	73.2	73.2	28	38.1	1	3	270	0.00	29.976 
18:45	73.0	73.0	73.0	27	37.0	0	2	270	0.00	29.976 
18:50	73.0	73.0	73.0	28	38.0	1	3	270	0.00	29.976 
18:55	72.8	72.8	72.8	28	37.8	1	3	270	0.00	29.976 
19:00	72.7	72.7	72.7	28	37.7	1	2	270	0.00	29.977 
19:05	72.7	72.7	72.7	28	37.7	1	3	270	0.00	29.977 
19:10	72.5	72.5	72.5	28	37.5	1	3	270	0.00	29.977 
19:15	72.1	72.1	72.1	27	36.3	1	4	270	0.00	29.975 
19:20	72.0	72.0	72.0	28	37.1	0	3	270	0.00	29.975 
19:25	71.8	71.8	71.8	28	36.9	0	3	270	0.00	29.975 
19:30	71.6	71.6	71.6	29	37.6	0	1	270	0.00	29.977 
19:35	71.3	71.3	71.3	29	37.4	0	3	270	0.00	29.977 
19:40	71.1	71.1	71.1	29	37.2	0	1	270	0.00	29.977 
19:45	70.9	70.9	70.9	31	38.7	0	1	270	0.00	29.980 
19:50	70.6	70.6	70.6	30	37.6	0	2	270	0.00	29.980 
19:55	70.6	70.6	70.6	29	36.8	0	1	270	0.00	29.980 
20:00	70.6	70.6	70.6	29	36.8	0	2	270	0.00	29.986 
20:05	70.6	70.6	70.6	29	36.8	0	1	270	0.00	29.986 
20:10	70.3	70.3	70.3	29	36.5	0	2	270	0.00	29.986 
20:15	70.1	70.1	70.1	30	37.2	0	1	270	0.00	29.982 
20:20	69.6	69.6	69.6	31	37.6	0	0	---	0.00	29.982 
20:25	69.1	69.1	69.1	31	37.2	0	0	---	0.00	29.982 
20:30	68.6	68.6	68.6	32	37.6	0	0	---	0.00	29.983 
20:35	68.1	68.1	68.1	33	37.9	0	0	---	0.00	29.983 
20:40	67.6	67.6	67.6	34	38.2	0	0	---	0.00	29.983 
20:45	67.1	67.1	67.1	34	37.8	0	0	---	0.00	29.986 
20:50	66.6	66.6	66.6	35	38.1	0	0	---	0.00	29.986 
20:55	66.1	66.1	66.1	37	39.1	0	0	---	0.00	29.986 
21:00	65.6	65.6	65.6	39	40.0	0	0	---	0.00	29.987 
21:05	65.0	65.0	65.0	39	39.4	0	0	---	0.00	29.987 
21:10	64.5	64.5	64.5	40	39.6	0	0	---	0.00	29.987 
21:15	64.0	64.0	64.0	42	40.4	0	0	---	0.00	29.985 
21:20	63.4	63.4	63.4	43	40.5	0	0	---	0.00	29.985 
21:25	62.9	62.9	62.9	44	40.6	0	0	---	0.00	29.985 
21:30	62.6	62.6	62.6	45	41.0	0	0	---	0.00	29.990 
21:35	62.1	62.1	62.1	46	41.1	0	0	---	0.00	29.990 
21:40	61.6	61.6	61.6	47	41.2	0	0	---	0.00	29.990 
21:45	61.2	61.2	61.2	48	41.3	0	0	---	0.00	29.999 
21:50	60.9	60.9	60.9	50	42.1	0	0	---	0.00	29.999 
21:55	60.4	60.4	60.4	50	41.7	0	0	---	0.00	29.999 
22:00	59.9	59.9	59.9	51	41.7	0	0	---	0.00	30.002 
22:05	59.6	59.6	59.6	53	42.4	0	0	---	0.00	30.002 
22:10	59.3	59.3	59.3	54	42.7	0	0	---	0.00	30.002 
22:15	59.0	59.0	59.0	54	42.4	0	0	---	0.00	30.000 
22:20	58.6	58.6	58.6	55	42.5	0	0	---	0.00	30.000 
22:25	58.3	58.3	58.3	56	42.7	0	0	---	0.00	30.000 
22:30	58.0	58.0	58.0	57	42.9	0	0	---	0.00	30.000 
22:35	57.6	57.6	57.6	58	42.9	0	0	---	0.00	30.000 
22:40	57.3	57.3	57.3	60	43.5	0	0	---	0.00	30.000 
22:45	57.0	57.0	57.0	60	43.3	0	0	---	0.00	30.001 
22:50	56.7	56.7	56.7	61	43.4	0	0	---	0.00	30.001 
22:55	56.5	56.5	56.5	61	43.2	0	0	---	0.00	30.001 
23:00	56.3	56.3	56.3	62	43.4	0	0	---	0.00	30.000 
23:05	56.2	56.2	56.2	62	43.4	0	0	---	0.00	30.000 
23:10	55.9	55.9	55.9	63	43.5	0	0	---	0.00	30.000 
23:15	55.7	55.7	55.7	64	43.7	0	0	---	0.00	29.997 
23:20	55.6	55.6	55.6	64	43.6	0	0	---	0.00	29.997 
23:25	55.3	55.3	55.3	64	43.3	0	0	---	0.00	29.997 
23:30	55.1	55.1	55.1	65	43.5	0	0	---	0.00	29.998 
23:35	55.0	55.0	55.0	65	43.5	0	0	---	0.00	29.998 
23:40	54.8	54.8	54.8	66	43.7	0	0	---	0.00	29.998 
23:45	54.7	54.7	54.7	66	43.6	0	0	---	0.00	29.997 
23:50	54.5	54.5	54.5	67	43.8	0	0	---	0.00	29.997 
23:55	54.4	54.4	54.4	67	43.7	0	0	---	0.00	29.997 

CoCoRaHS
IN-AL-39
A2 Web Hosting
Creative Commons License
GoDaddy
search engine by freefind advanced

loaded 2018-11-16 11:57:28 • last modified 2010-11-18 10:43:29
Privacy PolicyDisclaimer
• wx.awcolley.com is powered by PmWiki v.2002016 •
• all content (unless otherwise noted) © 2018 A W Colley